Terminal Aerodrome Forecast
Issued by NWS New Orleans/Baton Rouge, LA

Home | Current Version | Previous Version | Text Only | Print | Product List | Glossary On
Versions: 1 2 3 4 5 6 7 8 9 10 11 12 13 14 15 16 17 18 19 20 21 22
000
FTUS44 KLIX 220500
TAFNEW
TAF
KNEW 220523Z 2206/2306 VRB04KT P6SM SCT250
     FM221500 36006KT P6SM SCT040
     FM222100 VRB05KT P6SM SCT045
     FM230100 VRB03KT P6SM SCT250=

USA.gov is the U.S. government's official web portal to all federal, state and local government web resources and services.